createdAt,value
2022-11-24T00:01:15.619Z,4.50
2022-11-24T00:03:43.440Z,4.70
2022-11-24T00:06:12.135Z,4.70
2022-11-24T00:08:39.900Z,4.60
2022-11-24T00:11:14.888Z,4.70
2022-11-24T00:13:41.701Z,4.40
2022-11-24T00:16:10.428Z,4.50
2022-11-24T00:18:37.868Z,4.70
2022-11-24T00:21:04.667Z,4.70
2022-11-24T00:23:31.284Z,4.60
2022-11-24T00:26:09.597Z,4.60
2022-11-24T00:28:37.000Z,4.10
2022-11-24T00:31:05.014Z,4.30
2022-11-24T00:33:32.160Z,4.60
2022-11-24T00:35:59.757Z,4.50
2022-11-24T00:38:26.655Z,4.60
2022-11-24T00:40:53.400Z,4.40
2022-11-24T00:43:20.045Z,4.70
2022-11-24T00:45:46.816Z,4.60
2022-11-24T00:48:13.532Z,4.80
2022-11-24T00:50:40.160Z,4.80
2022-11-24T00:53:06.760Z,4.40
2022-11-24T00:55:33.334Z,4.20
2022-11-24T00:57:59.914Z,4.10
2022-11-24T01:00:26.558Z,4.20
2022-11-24T01:02:53.608Z,3.70
2022-11-24T01:05:20.566Z,3.80
2022-11-24T01:07:47.263Z,4.10
2022-11-24T01:10:13.937Z,4.40
2022-11-24T01:12:40.500Z,3.90
2022-11-24T01:15:07.427Z,4.10
2022-11-24T01:17:34.010Z,4.10
2022-11-24T01:20:00.571Z,4.10
2022-11-24T01:22:27.500Z,4.00
2022-11-24T01:24:54.115Z,4.20
2022-11-24T01:27:20.651Z,4.20
2022-11-24T01:29:47.282Z,3.90
2022-11-24T01:32:13.833Z,3.70
2022-11-24T01:34:40.415Z,3.70
2022-11-24T01:37:06.987Z,3.60
2022-11-24T01:39:33.549Z,3.90
2022-11-24T01:42:03.302Z,4.10
2022-11-24T01:44:31.620Z,4.10
2022-11-24T01:47:24.671Z,4.30
2022-11-24T01:49:57.297Z,4.40
2022-11-24T01:52:34.240Z,4.00
2022-11-24T01:55:06.010Z,3.30
2022-11-24T01:57:37.390Z,3.30
2022-11-24T02:00:06.913Z,3.50
2022-11-24T02:02:41.657Z,3.40
2022-11-24T02:05:12.222Z,3.60
2022-11-24T02:07:38.943Z,3.60
2022-11-24T02:10:12.438Z,3.70
2022-11-24T02:12:40.378Z,3.00
2022-11-24T02:15:08.448Z,3.00
2022-11-24T02:17:35.012Z,3.20
2022-11-24T02:20:05.465Z,3.00
2022-11-24T02:22:51.268Z,3.00
2022-11-24T02:25:51.796Z,2.70
2022-11-24T02:28:22.946Z,2.70
2022-11-24T02:30:50.381Z,2.50
2022-11-24T02:33:17.503Z,2.70
2022-11-24T02:35:44.112Z,2.70
2022-11-24T02:38:13.404Z,3.10
2022-11-24T02:40:41.980Z,3.20
2022-11-24T02:43:11.476Z,3.50
2022-11-24T02:45:38.029Z,3.20
2022-11-24T02:48:05.025Z,3.20
2022-11-24T02:50:31.630Z,2.70
2022-11-24T02:52:58.227Z,2.80
2022-11-24T02:55:24.937Z,3.10
2022-11-24T02:57:51.618Z,3.20
2022-11-24T03:00:18.774Z,2.80
2022-11-24T03:02:45.539Z,2.70
2022-11-24T03:05:12.418Z,2.50
2022-11-24T03:07:39.132Z,2.90
2022-11-24T03:10:06.266Z,3.20
2022-11-24T03:12:32.879Z,3.20
2022-11-24T03:14:59.472Z,3.40
2022-11-24T03:17:26.072Z,3.30
2022-11-24T03:19:52.691Z,3.10
2022-11-24T03:22:19.318Z,3.20
2022-11-24T03:24:46.034Z,3.50
2022-11-24T03:27:12.648Z,3.60
2022-11-24T03:29:39.275Z,3.50
2022-11-24T03:32:06.109Z,3.50
2022-11-24T03:34:33.038Z,3.70
2022-11-24T03:36:59.833Z,3.60
2022-11-24T03:39:26.372Z,3.50
2022-11-24T03:41:53.005Z,3.20
2022-11-24T03:44:19.573Z,2.70
2022-11-24T03:46:46.195Z,2.90
2022-11-24T03:49:12.777Z,2.90
2022-11-24T03:51:39.384Z,2.60
2022-11-24T03:54:06.780Z,3.10
2022-11-24T03:56:33.376Z,3.00
2022-11-24T03:58:59.981Z,3.20
2022-11-24T04:01:26.680Z,2.80
2022-11-24T04:03:53.284Z,2.50
2022-11-24T04:06:19.863Z,2.80
2022-11-24T04:08:46.446Z,2.50
2022-11-24T04:11:32.958Z,2.50
2022-11-24T04:13:59.560Z,2.90
2022-11-24T04:16:26.262Z,2.80
2022-11-24T04:18:53.520Z,2.90
2022-11-24T04:21:20.598Z,2.70
2022-11-24T04:23:47.316Z,2.70
2022-11-24T04:26:14.447Z,3.00
2022-11-24T04:28:41.056Z,2.90
2022-11-24T04:31:07.757Z,2.70
2022-11-24T04:33:34.410Z,3.10
2022-11-24T04:36:00.943Z,3.00
2022-11-24T04:39:23.202Z,3.40
2022-11-24T04:41:14.032Z,2.90
2022-11-24T04:43:40.977Z,3.00
2022-11-24T04:46:10.424Z,3.20
2022-11-24T04:48:37.117Z,3.20
2022-11-24T04:51:07.078Z,2.70
2022-11-24T04:53:33.655Z,2.30
2022-11-24T04:56:05.573Z,3.00
2022-11-24T04:58:32.549Z,3.20
2022-11-24T05:00:59.102Z,3.30
2022-11-24T05:03:25.759Z,3.20
2022-11-24T05:05:52.319Z,3.20
2022-11-24T05:08:18.850Z,3.40
2022-11-24T05:10:45.450Z,3.00
2022-11-24T05:13:13.048Z,3.10
2022-11-24T05:15:40.670Z,2.30
2022-11-24T05:18:08.999Z,2.20
2022-11-24T05:20:35.870Z,2.00
2022-11-24T05:23:06.933Z,2.30
2022-11-24T05:25:34.954Z,1.90
2022-11-24T05:28:03.955Z,2.10
2022-11-24T05:30:31.366Z,2.00
2022-11-24T05:32:58.689Z,2.20
2022-11-24T05:35:25.373Z,2.30
2022-11-24T05:37:52.046Z,2.80
2022-11-24T05:40:18.590Z,3.20
2022-11-24T05:42:47.943Z,3.50
2022-11-24T05:45:19.647Z,3.50
2022-11-24T05:47:46.614Z,3.80
2022-11-24T05:50:15.431Z,3.90
2022-11-24T05:52:42.052Z,3.70
2022-11-24T05:55:09.391Z,3.40
2022-11-24T05:57:35.985Z,3.70
2022-11-24T06:00:04.957Z,4.10
2022-11-24T06:02:39.028Z,4.30
2022-11-24T06:05:05.847Z,4.30
2022-11-24T06:07:32.482Z,4.50
2022-11-24T06:09:59.171Z,4.40
2022-11-24T06:12:25.701Z,4.40
2022-11-24T06:14:52.391Z,4.40
2022-11-24T06:17:19.046Z,4.20
2022-11-24T06:19:47.816Z,4.00
2022-11-24T06:22:14.317Z,3.90
2022-11-24T06:24:40.815Z,4.00
2022-11-24T06:27:07.683Z,4.00
2022-11-24T06:29:34.297Z,4.10
2022-11-24T06:32:00.860Z,3.90
2022-11-24T06:34:27.371Z,3.30
2022-11-24T06:36:53.847Z,3.70
2022-11-24T06:39:20.336Z,3.60
2022-11-24T06:41:49.776Z,3.00
2022-11-24T06:44:16.329Z,2.40
2022-11-24T06:46:42.833Z,2.80
2022-11-24T06:49:09.370Z,3.40
2022-11-24T06:51:35.959Z,3.50
2022-11-24T06:54:06.431Z,3.70
2022-11-24T06:56:33.170Z,3.70
2022-11-24T06:58:59.695Z,3.70
2022-11-24T07:01:27.793Z,3.80
2022-11-24T07:03:55.428Z,4.00
2022-11-24T07:06:23.519Z,3.90
2022-11-24T07:08:50.687Z,3.70
2022-11-24T07:11:20.015Z,4.00
2022-11-24T07:13:47.395Z,4.10
2022-11-24T07:16:16.631Z,4.00
2022-11-24T07:18:44.063Z,3.50
2022-11-24T07:21:10.782Z,3.50
2022-11-24T07:23:38.011Z,2.60
2022-11-24T07:26:07.020Z,3.20
2022-11-24T07:28:34.659Z,3.00
2022-11-24T07:31:12.356Z,3.00
2022-11-24T07:33:39.510Z,3.10
2022-11-24T07:36:07.802Z,3.40
2022-11-24T07:38:34.874Z,3.50
2022-11-24T07:41:06.685Z,3.50
2022-11-24T07:43:34.488Z,3.20
2022-11-24T07:46:01.298Z,3.50
2022-11-24T07:48:28.048Z,3.90
2022-11-24T07:50:56.307Z,3.60
2022-11-24T07:53:23.040Z,3.80
2022-11-24T07:55:56.886Z,4.00
2022-11-24T07:58:25.527Z,3.90
2022-11-24T08:00:55.815Z,3.70
2022-11-24T08:03:22.662Z,3.20
2022-11-24T08:08:46.576Z,3.10
2022-11-24T08:11:15.581Z,3.50
2022-11-24T08:13:42.849Z,3.60
2022-11-24T08:16:14.980Z,3.80
2022-11-24T08:18:42.068Z,3.90
2022-11-24T08:21:12.274Z,3.90
2022-11-24T08:23:38.984Z,4.00
2022-11-24T08:26:08.895Z,3.90
2022-11-24T08:28:35.466Z,3.90
2022-11-24T08:31:07.526Z,3.80
2022-11-24T08:33:34.590Z,3.60
2022-11-24T08:36:08.642Z,3.40
2022-11-24T08:38:35.346Z,3.60
2022-11-24T08:41:03.729Z,3.50
2022-11-24T08:43:30.773Z,3.80
2022-11-24T08:46:07.001Z,4.00
2022-11-24T08:48:34.252Z,3.70
2022-11-24T08:51:08.135Z,3.70
2022-11-24T08:53:34.689Z,3.60
2022-11-24T08:56:01.973Z,3.50
2022-11-24T08:58:29.884Z,3.20
2022-11-24T09:01:04.089Z,3.00
2022-11-24T09:03:30.785Z,2.80
2022-11-24T09:05:57.526Z,3.10
2022-11-24T09:08:24.217Z,3.50
2022-11-24T09:10:51.473Z,3.60
2022-11-24T09:13:18.153Z,3.50
2022-11-24T09:15:44.892Z,3.50
2022-11-24T09:18:11.494Z,3.90
2022-11-24T09:20:41.996Z,4.20
2022-11-24T09:23:19.109Z,4.20
2022-11-24T09:25:46.234Z,4.20
2022-11-24T09:28:12.934Z,4.20
2022-11-24T09:30:40.061Z,4.20
2022-11-24T09:33:16.606Z,3.90
2022-11-24T09:35:43.370Z,4.00
2022-11-24T09:38:11.247Z,3.70
2022-11-24T09:40:41.055Z,3.20
2022-11-24T09:43:50.192Z,3.10
2022-11-24T09:46:50.050Z,3.10
2022-11-24T09:49:36.227Z,3.70
2022-11-24T09:52:10.283Z,3.30
2022-11-24T09:54:38.105Z,3.20
2022-11-24T09:57:06.349Z,3.70
2022-11-24T09:59:33.322Z,4.30
2022-11-24T10:02:00.445Z,4.20
2022-11-24T10:04:30.275Z,4.30
2022-11-24T10:07:09.150Z,3.80
2022-11-24T10:09:51.167Z,3.80
2022-11-24T10:12:23.904Z,3.30
2022-11-24T10:15:20.678Z,3.50
2022-11-24T10:17:53.465Z,3.40
2022-11-24T10:20:41.319Z,3.80
2022-11-24T10:23:32.664Z,4.30
2022-11-24T10:26:08.586Z,4.60
2022-11-24T10:28:45.460Z,4.90
2022-11-24T10:31:25.213Z,4.30
2022-11-24T10:33:51.933Z,4.20
2022-11-24T10:36:33.911Z,3.70
2022-11-24T10:39:11.021Z,3.80
2022-11-24T10:41:57.602Z,3.60
2022-11-24T10:44:24.598Z,3.30
2022-11-24T10:46:52.397Z,3.60
2022-11-24T10:49:23.682Z,4.20
2022-11-24T10:52:03.282Z,4.50
2022-11-24T10:54:29.983Z,4.80
2022-11-24T10:56:56.572Z,4.80
2022-11-24T10:59:35.951Z,5.20
2022-11-24T11:02:21.937Z,5.00
2022-11-24T11:04:48.558Z,5.30
2022-11-24T11:07:21.025Z,4.90
2022-11-24T11:09:48.404Z,5.10
2022-11-24T11:12:43.892Z,5.40
2022-11-24T11:15:23.146Z,5.70
2022-11-24T11:17:52.393Z,5.60
2022-11-24T11:20:27.271Z,5.10
2022-11-24T11:22:56.135Z,4.80
2022-11-24T11:25:31.197Z,5.20
2022-11-24T11:28:20.527Z,5.00
2022-11-24T11:31:23.989Z,5.70
2022-11-24T11:34:03.663Z,5.80
2022-11-24T11:36:32.821Z,5.90
2022-11-24T11:38:59.937Z,5.60
2022-11-24T11:41:37.163Z,5.50
2022-11-24T11:44:25.626Z,6.00
2022-11-24T11:46:54.709Z,6.10
2022-11-24T11:49:21.379Z,6.20
2022-11-24T11:51:56.467Z,5.70
2022-11-24T11:54:30.570Z,6.10
2022-11-24T11:57:02.864Z,6.60
2022-11-24T11:59:44.954Z,6.20
2022-11-24T12:02:29.737Z,5.40
2022-11-24T12:04:59.715Z,5.20
2022-11-24T12:07:38.591Z,5.10
2022-11-24T12:10:23.578Z,5.50
2022-11-24T12:13:23.668Z,5.50
2022-11-24T12:15:53.217Z,5.80
2022-11-24T12:18:56.513Z,5.20
2022-11-24T12:21:33.385Z,5.50
2022-11-24T12:24:22.184Z,5.00
2022-11-24T12:27:10.751Z,5.50
2022-11-24T12:29:54.811Z,5.80
2022-11-24T12:33:03.918Z,6.20
2022-11-24T12:35:37.219Z,6.40
2022-11-24T12:38:03.766Z,6.40
2022-11-24T12:41:18.357Z,6.40
2022-11-24T12:44:02.879Z,6.40
2022-11-24T12:46:53.959Z,6.20
2022-11-24T12:49:47.083Z,6.20
2022-11-24T12:52:22.778Z,6.30
2022-11-24T12:54:49.361Z,6.30
2022-11-24T12:57:34.565Z,6.20
2022-11-24T13:00:13.817Z,6.30
2022-11-24T13:03:19.610Z,6.50
2022-11-24T13:05:53.497Z,6.20
2022-11-24T13:08:20.530Z,6.30
2022-11-24T13:10:57.165Z,6.30
2022-11-24T13:13:28.102Z,6.10
2022-11-24T13:16:34.516Z,5.50
2022-11-24T13:19:23.061Z,6.10
2022-11-24T13:21:59.335Z,5.60
2022-11-24T13:24:26.899Z,5.90
2022-11-24T13:27:26.976Z,6.00
2022-11-24T13:29:54.113Z,5.80
2022-11-24T13:32:23.477Z,5.90
2022-11-24T13:34:55.063Z,6.00
2022-11-24T13:37:35.109Z,6.20
2022-11-24T13:40:11.817Z,6.20
2022-11-24T13:43:10.467Z,6.60
2022-11-24T13:45:40.690Z,6.30
2022-11-24T13:48:19.826Z,6.20
2022-11-24T13:50:49.728Z,5.60
2022-11-24T13:53:26.354Z,4.90
2022-11-24T13:55:59.606Z,5.10
2022-11-24T13:58:39.150Z,5.40
2022-11-24T14:01:08.986Z,5.60
2022-11-24T14:03:55.456Z,5.00
2022-11-24T14:06:30.372Z,5.60
2022-11-24T14:09:02.124Z,5.80
2022-11-24T14:11:29.383Z,6.10
2022-11-24T14:13:56.239Z,6.20
2022-11-24T14:16:24.216Z,6.40
2022-11-24T14:18:52.025Z,6.40
2022-11-24T14:21:34.147Z,5.90
2022-11-24T14:24:09.170Z,5.30
2022-11-24T14:26:38.262Z,5.80
2022-11-24T14:29:15.331Z,5.80
2022-11-24T14:31:43.608Z,5.00
2022-11-24T14:34:18.230Z,4.70
2022-11-24T14:36:44.934Z,4.60
2022-11-24T14:39:17.051Z,4.40
2022-11-24T14:42:00.726Z,4.60
2022-11-24T14:44:43.121Z,4.30
2022-11-24T14:47:31.619Z,4.50
2022-11-24T14:50:10.715Z,5.00
2022-11-24T14:52:47.330Z,5.30
2022-11-24T14:55:40.369Z,5.20
2022-11-24T14:58:21.453Z,5.40
2022-11-24T15:01:08.860Z,5.80
2022-11-24T15:03:35.353Z,6.00
2022-11-24T15:06:02.282Z,5.80
2022-11-24T15:08:36.395Z,5.30
2022-11-24T15:11:04.234Z,5.50
2022-11-24T15:13:37.097Z,5.90
2022-11-24T15:16:14.867Z,6.10
2022-11-24T15:18:46.774Z,6.10
2022-11-24T15:21:18.795Z,5.60
2022-11-24T15:24:04.765Z,5.30
2022-11-24T15:26:36.742Z,5.80
2022-11-24T15:29:06.699Z,5.80
2022-11-24T15:31:33.301Z,5.90
2022-11-24T15:33:59.838Z,5.70
2022-11-24T15:36:26.328Z,5.60
2022-11-24T15:38:52.917Z,5.50
2022-11-24T15:41:21.343Z,5.20
2022-11-24T15:43:47.993Z,5.00
2022-11-24T15:46:14.527Z,5.30
2022-11-24T15:48:41.014Z,5.90
2022-11-24T15:51:12.419Z,5.80
2022-11-24T15:53:41.119Z,5.90
2022-11-24T15:56:13.045Z,5.90
2022-11-24T15:58:39.533Z,5.80
2022-11-24T16:01:06.368Z,5.90
2022-11-24T16:03:49.265Z,5.30
2022-11-24T16:06:24.542Z,5.60
2022-11-24T16:08:53.097Z,5.80
2022-11-24T16:11:20.013Z,5.60
2022-11-24T16:13:51.834Z,5.30
2022-11-24T16:16:19.621Z,5.60
2022-11-24T16:18:46.299Z,5.80
2022-11-24T16:21:12.933Z,5.70
2022-11-24T16:23:39.605Z,5.90
2022-11-24T16:26:06.677Z,6.00
2022-11-24T16:28:34.081Z,6.00
2022-11-24T16:31:00.944Z,5.40
2022-11-24T16:33:29.636Z,5.20
2022-11-24T16:35:56.449Z,4.80
2022-11-24T16:38:23.094Z,5.00
2022-11-24T16:40:54.103Z,5.00
2022-11-24T16:43:20.710Z,5.70
2022-11-24T16:45:54.612Z,5.90
2022-11-24T16:48:21.214Z,5.70
2022-11-24T16:50:47.767Z,5.50
2022-11-24T16:53:14.404Z,4.80
2022-11-24T16:55:41.023Z,4.70
2022-11-24T16:58:07.598Z,4.70
2022-11-24T17:00:34.120Z,5.00
2022-11-24T17:03:00.681Z,5.40
2022-11-24T17:05:27.334Z,5.10
2022-11-24T17:07:53.878Z,5.10
2022-11-24T17:10:20.424Z,4.80
2022-11-24T17:12:46.964Z,4.60
2022-11-24T17:15:32.728Z,4.80
2022-11-24T17:20:46.878Z,5.00
2022-11-24T17:23:13.669Z,5.20
2022-11-24T17:25:40.197Z,5.60
2022-11-24T17:28:06.751Z,5.70
2022-11-24T17:30:33.505Z,5.50
2022-11-24T17:32:59.997Z,5.00
2022-11-24T17:35:26.510Z,5.00
2022-11-24T17:37:53.016Z,4.70
2022-11-24T17:40:28.374Z,4.60
2022-11-24T17:42:59.782Z,4.90
2022-11-24T17:45:27.235Z,4.80
2022-11-24T17:47:53.848Z,4.70
2022-11-24T17:50:25.422Z,5.50
2022-11-24T17:52:52.507Z,5.40
2022-11-24T17:55:19.044Z,5.80
2022-11-24T17:57:45.570Z,6.00
2022-11-24T18:00:12.736Z,6.20
2022-11-24T18:02:39.276Z,6.50
2022-11-24T18:05:06.108Z,6.30
2022-11-24T18:07:35.291Z,6.50
2022-11-24T18:10:01.823Z,6.70
2022-11-24T18:12:28.363Z,6.70
2022-11-24T18:14:55.010Z,6.70
2022-11-24T18:17:21.617Z,6.90
2022-11-24T18:19:48.148Z,6.90
2022-11-24T18:22:14.721Z,6.80
2022-11-24T18:24:41.323Z,6.70
2022-11-24T18:27:08.255Z,6.60
2022-11-24T18:29:34.891Z,6.50
2022-11-24T18:32:01.559Z,6.60
2022-11-24T18:34:28.257Z,5.80
2022-11-24T18:36:54.775Z,5.60
2022-11-24T18:39:21.520Z,6.00
2022-11-24T18:41:48.169Z,5.70
2022-11-24T18:44:14.739Z,5.80
2022-11-24T18:46:41.285Z,5.60
2022-11-24T18:49:07.905Z,5.30
2022-11-24T18:51:34.751Z,5.70
2022-11-24T18:54:03.024Z,5.80
2022-11-24T18:56:30.370Z,5.20
2022-11-24T18:59:00.277Z,4.90
2022-11-24T19:01:27.984Z,5.10
2022-11-24T19:03:57.224Z,4.90
2022-11-24T19:06:31.945Z,5.30
2022-11-24T19:08:59.472Z,5.40
2022-11-24T19:11:36.982Z,5.10
2022-11-24T19:14:05.884Z,4.80
2022-11-24T19:16:32.834Z,5.10
2022-11-24T19:19:00.387Z,5.60
2022-11-24T19:21:27.676Z,5.80
2022-11-24T19:23:55.191Z,6.10
2022-11-24T19:26:23.108Z,5.70
2022-11-24T19:28:49.708Z,5.90
2022-11-24T19:31:17.955Z,6.10
2022-11-24T19:33:45.139Z,6.10
2022-11-24T19:36:16.506Z,6.30
2022-11-24T19:38:43.644Z,6.50
2022-11-24T19:41:12.100Z,6.60
2022-11-24T19:43:38.703Z,6.70
2022-11-24T19:46:07.276Z,6.50
2022-11-24T19:48:35.758Z,6.50
2022-11-24T19:51:04.137Z,6.40
2022-11-24T19:53:30.767Z,6.60
2022-11-24T19:56:08.752Z,6.50
2022-11-24T19:58:35.833Z,6.60
2022-11-24T20:01:10.073Z,6.90
2022-11-24T20:03:37.597Z,6.70
2022-11-24T20:06:05.150Z,7.00
2022-11-24T20:08:33.946Z,6.60
2022-11-24T20:11:10.540Z,6.40
2022-11-24T20:13:38.615Z,6.60
2022-11-24T20:16:10.280Z,6.80
2022-11-24T20:18:43.706Z,6.70
2022-11-24T20:21:21.210Z,5.90
2022-11-24T20:24:11.184Z,5.60
2022-11-24T20:26:43.474Z,5.30
2022-11-24T20:29:14.589Z,5.00
2022-11-24T20:31:44.398Z,5.00
2022-11-24T20:34:11.920Z,5.30
2022-11-24T20:36:42.690Z,5.90
2022-11-24T20:39:13.522Z,6.10
2022-11-24T20:41:40.258Z,6.40
2022-11-24T20:46:41.880Z,6.30
2022-11-24T20:49:10.993Z,6.60
2022-11-24T20:51:39.732Z,6.70
2022-11-24T20:54:08.684Z,6.80
2022-11-24T20:56:38.156Z,6.80
2022-11-24T20:59:05.333Z,6.60
2022-11-24T21:01:42.985Z,6.10
2022-11-24T21:04:12.187Z,6.20
2022-11-24T21:06:39.326Z,5.80
2022-11-24T21:09:07.219Z,6.20
2022-11-24T21:11:34.188Z,6.60
2022-11-24T21:14:03.243Z,6.70
2022-11-24T21:16:34.285Z,6.20
2022-11-24T21:19:03.456Z,6.10
2022-11-24T21:21:35.868Z,6.20
2022-11-24T21:24:04.391Z,6.30
2022-11-24T21:26:30.923Z,6.20
2022-11-24T21:28:59.856Z,6.40
2022-11-24T21:31:26.534Z,6.40
2022-11-24T21:33:54.998Z,6.50
2022-11-24T21:36:23.837Z,6.50
2022-11-24T21:38:59.883Z,6.50
2022-11-24T21:41:28.094Z,6.30
2022-11-24T21:43:58.023Z,6.10
2022-11-24T21:46:25.109Z,6.20
2022-11-24T21:48:52.017Z,6.30
2022-11-24T21:51:19.996Z,5.80
2022-11-24T21:53:47.189Z,5.60
2022-11-24T21:56:16.174Z,6.00
2022-11-24T21:58:51.193Z,5.70
2022-11-24T22:01:19.774Z,5.70
2022-11-24T22:03:46.352Z,5.60
2022-11-24T22:06:12.990Z,5.70
2022-11-24T22:08:39.459Z,6.10
2022-11-24T22:11:08.677Z,5.80
2022-11-24T22:13:35.492Z,6.00
2022-11-24T22:16:04.437Z,6.10
2022-11-24T22:18:41.754Z,5.80
2022-11-24T22:21:11.805Z,5.50
2022-11-24T22:23:38.594Z,5.40
2022-11-24T22:26:07.539Z,5.40
2022-11-24T22:28:35.288Z,5.70
2022-11-24T22:31:15.365Z,5.30
2022-11-24T22:33:42.236Z,5.60
2022-11-24T22:36:13.214Z,6.00
2022-11-24T22:38:40.561Z,6.00
2022-11-24T22:41:13.031Z,5.80
2022-11-24T22:43:40.724Z,5.10
2022-11-24T22:46:09.509Z,5.30
2022-11-24T22:48:36.390Z,5.80
2022-11-24T22:51:04.809Z,6.00
2022-11-24T22:53:31.523Z,6.00
2022-11-24T22:56:05.399Z,6.10
2022-11-24T22:58:33.194Z,6.00
2022-11-24T23:01:12.539Z,6.00
2022-11-24T23:03:39.872Z,6.20
2022-11-24T23:06:12.186Z,6.30
2022-11-24T23:08:38.894Z,6.10
2022-11-24T23:11:20.422Z,6.10
2022-11-24T23:13:47.112Z,6.20
2022-11-24T23:16:15.971Z,6.40
2022-11-24T23:18:42.746Z,6.50
2022-11-24T23:21:12.322Z,6.30
2022-11-24T23:23:42.400Z,6.10
2022-11-24T23:26:11.897Z,6.00
2022-11-24T23:28:38.612Z,6.30
2022-11-24T23:31:10.204Z,6.50
2022-11-24T23:33:36.925Z,6.50
2022-11-24T23:36:09.079Z,6.50
2022-11-24T23:38:35.938Z,6.40
2022-11-24T23:41:04.571Z,6.50
2022-11-24T23:43:32.223Z,6.50
2022-11-24T23:46:02.956Z,6.40
2022-11-24T23:48:29.659Z,6.50
2022-11-24T23:50:56.304Z,6.40
2022-11-24T23:53:22.895Z,6.60
2022-11-24T23:55:54.701Z,6.70
2022-11-24T23:58:24.686Z,6.60
